createdAt,value
2023-10-10T00:00:47.431Z,70.76
2023-10-10T00:01:47.435Z,70.83
2023-10-10T00:02:47.453Z,70.86
2023-10-10T00:03:47.428Z,70.48
2023-10-10T00:04:47.421Z,70.86
2023-10-10T00:05:47.417Z,70.83
2023-10-10T00:06:47.419Z,70.73
2023-10-10T00:07:47.422Z,70.86
2023-10-10T00:08:47.415Z,70.83
2023-10-10T00:09:47.412Z,70.67
2023-10-10T00:10:47.439Z,70.83
2023-10-10T00:11:47.423Z,71.06
2023-10-10T00:12:47.420Z,70.92
2023-10-10T00:13:47.413Z,70.67
2023-10-10T00:14:47.408Z,70.83
2023-10-10T00:15:47.434Z,71.02
2023-10-10T00:16:47.402Z,70.64
2023-10-10T00:17:47.434Z,70.83
2023-10-10T00:18:47.405Z,70.64
2023-10-10T00:19:47.398Z,70.76
2023-10-10T00:20:47.402Z,70.76
2023-10-10T00:21:47.400Z,70.83
2023-10-10T00:22:47.397Z,70.86
2023-10-10T00:23:47.412Z,70.73
2023-10-10T00:24:47.394Z,70.83
2023-10-10T00:25:47.393Z,70.73
2023-10-10T00:26:47.419Z,70.76
2023-10-10T00:27:47.391Z,70.73
2023-10-10T00:28:47.390Z,70.73
2023-10-10T00:29:47.420Z,70.86
2023-10-10T00:30:47.385Z,70.64
2023-10-10T00:31:47.383Z,70.83
2023-10-10T00:32:47.551Z,70.54
2023-10-10T00:33:47.380Z,70.73
2023-10-10T00:34:47.383Z,70.54
2023-10-10T00:35:47.380Z,70.64
2023-10-10T00:36:47.372Z,70.92
2023-10-10T00:37:47.378Z,70.67
2023-10-10T00:38:47.379Z,70.86
2023-10-10T00:39:47.368Z,70.73
2023-10-10T00:40:47.392Z,70.76
2023-10-10T00:41:47.370Z,70.64
2023-10-10T00:42:47.397Z,70.73
2023-10-10T00:43:47.384Z,70.57
2023-10-10T00:44:47.367Z,70.73
2023-10-10T00:45:47.364Z,70.83
2023-10-10T00:46:47.385Z,70.83
2023-10-10T00:47:47.411Z,70.83
2023-10-10T00:48:47.362Z,70.76
2023-10-10T00:49:47.361Z,70.54
2023-10-10T00:50:47.361Z,70.54
2023-10-10T00:51:47.943Z,70.92
2023-10-10T00:52:47.512Z,70.83
2023-10-10T00:53:47.403Z,70.54
2023-10-10T00:54:47.355Z,70.73
2023-10-10T00:55:47.375Z,70.92
2023-10-10T00:56:47.361Z,70.83
2023-10-10T00:57:47.351Z,70.73
2023-10-10T00:58:47.412Z,70.92
2023-10-10T00:59:47.351Z,70.54
2023-10-10T01:00:47.373Z,70.64
2023-10-10T01:01:47.343Z,70.54
2023-10-10T01:02:47.612Z,70.86
2023-10-10T01:03:47.550Z,70.54
2023-10-10T01:04:47.340Z,70.83
2023-10-10T01:05:47.335Z,71.22
2023-10-10T01:06:47.338Z,70.92
2023-10-10T01:07:47.341Z,70.73
2023-10-10T01:08:47.349Z,70.83
2023-10-10T01:09:47.353Z,70.83
2023-10-10T01:10:47.342Z,70.92
2023-10-10T01:11:47.331Z,71.02
2023-10-10T01:12:47.335Z,70.83
2023-10-10T01:13:47.351Z,70.92
2023-10-10T01:14:47.355Z,70.83
2023-10-10T01:15:47.331Z,70.83
2023-10-10T01:16:47.357Z,70.92
2023-10-10T01:17:47.383Z,71.02
2023-10-10T01:18:47.324Z,71.22
2023-10-10T01:19:47.321Z,70.92
2023-10-10T01:20:47.338Z,71.22
2023-10-10T01:21:47.323Z,71.22
2023-10-10T01:22:47.318Z,70.73
2023-10-10T01:23:47.313Z,71.22
2023-10-10T01:24:47.312Z,71.41
2023-10-10T01:25:47.326Z,71.12
2023-10-10T01:26:47.312Z,71.31
2023-10-10T01:27:47.307Z,71.02
2023-10-10T01:28:47.367Z,71.22
2023-10-10T01:29:47.310Z,71.22
2023-10-10T01:30:47.352Z,71.02
2023-10-10T01:31:47.315Z,71.02
2023-10-10T01:32:47.339Z,70.83
2023-10-10T01:33:47.357Z,71.02
2023-10-10T01:34:47.333Z,71.12
2023-10-10T01:35:47.313Z,71.12
2023-10-10T01:36:47.302Z,71.02
2023-10-10T01:37:47.297Z,71.02
2023-10-10T01:38:47.302Z,70.83
2023-10-10T01:39:47.300Z,71.12
2023-10-10T01:40:47.298Z,71.02
2023-10-10T01:41:47.302Z,71.12
2023-10-10T01:42:47.286Z,71.22
2023-10-10T01:43:47.438Z,71.12
2023-10-10T01:44:47.348Z,71.12
2023-10-10T01:45:47.295Z,70.92
2023-10-10T01:46:47.380Z,71.02
2023-10-10T01:47:47.379Z,70.92
2023-10-10T01:48:47.281Z,71.02
2023-10-10T01:49:47.280Z,71.31
2023-10-10T01:50:47.279Z,70.92
2023-10-10T01:51:47.277Z,71.02
2023-10-10T01:52:47.626Z,70.92
2023-10-10T01:53:47.272Z,70.92
2023-10-10T01:54:47.346Z,70.92
2023-10-10T01:55:47.269Z,70.92
2023-10-10T01:56:47.271Z,71.02
2023-10-10T01:57:47.265Z,71.02
2023-10-10T01:58:47.265Z,71.02
2023-10-10T01:59:47.406Z,71.02
2023-10-10T02:00:47.269Z,70.92
2023-10-10T02:01:47.324Z,71.02
2023-10-10T02:02:47.411Z,71.02
2023-10-10T02:03:47.514Z,71.02
2023-10-10T02:04:47.280Z,71.02
2023-10-10T02:05:47.264Z,71.12
2023-10-10T02:06:47.264Z,71.02
2023-10-10T02:07:47.252Z,71.12
2023-10-10T02:08:47.263Z,71.31
2023-10-10T02:09:47.257Z,71.12
2023-10-10T02:10:47.326Z,71.02
2023-10-10T02:11:47.255Z,71.12
2023-10-10T02:12:47.250Z,71.31
2023-10-10T02:13:47.246Z,71.12
2023-10-10T02:14:47.248Z,71.12
2023-10-10T02:15:47.247Z,70.92
2023-10-10T02:16:47.265Z,71.41
2023-10-10T02:17:47.325Z,71.12
2023-10-10T02:18:47.272Z,71.41
2023-10-10T02:19:47.289Z,70.73
2023-10-10T02:20:47.248Z,71.02
2023-10-10T02:21:47.381Z,70.92
2023-10-10T02:22:47.234Z,71.12
2023-10-10T02:23:47.236Z,71.12
2023-10-10T02:24:47.243Z,71.12
2023-10-10T02:25:47.274Z,71.02
2023-10-10T02:26:47.238Z,70.73
2023-10-10T02:27:47.243Z,71.41
2023-10-10T02:28:47.227Z,71.22
2023-10-10T02:29:47.228Z,70.73
2023-10-10T02:30:47.331Z,71.22
2023-10-10T02:31:47.299Z,71.41
2023-10-10T02:32:47.284Z,71.41
2023-10-10T02:33:47.229Z,71.02
2023-10-10T02:34:47.249Z,70.83
2023-10-10T02:35:47.226Z,71.41
2023-10-10T02:36:47.222Z,71.41
2023-10-10T02:37:47.334Z,71.41
2023-10-10T02:38:47.217Z,71.22
2023-10-10T02:39:47.240Z,71.12
2023-10-10T02:40:47.211Z,71.22
2023-10-10T02:41:47.220Z,71.22
2023-10-10T02:42:47.213Z,71.31
2023-10-10T02:43:47.343Z,71.50
2023-10-10T02:44:47.263Z,71.31
2023-10-10T02:45:47.208Z,71.41
2023-10-10T02:46:47.220Z,71.41
2023-10-10T02:47:47.319Z,71.31
2023-10-10T02:48:47.209Z,71.22
2023-10-10T02:49:47.210Z,71.22
2023-10-10T02:50:47.344Z,71.41
2023-10-10T02:51:47.225Z,71.22
2023-10-10T02:52:47.311Z,71.22
2023-10-10T02:53:47.194Z,71.22
2023-10-10T02:54:47.197Z,71.22
2023-10-10T02:55:47.200Z,71.22
2023-10-10T02:56:47.197Z,71.22
2023-10-10T02:57:47.193Z,71.22
2023-10-10T02:58:47.190Z,71.31
2023-10-10T02:59:47.239Z,71.22
2023-10-10T03:00:47.191Z,71.41
2023-10-10T03:01:47.233Z,71.41
2023-10-10T03:02:47.319Z,71.02
2023-10-10T03:03:47.283Z,71.02
2023-10-10T03:04:47.187Z,71.41
2023-10-10T03:05:47.248Z,70.92
2023-10-10T03:06:47.215Z,71.31
2023-10-10T03:07:47.178Z,71.12
2023-10-10T03:08:47.177Z,71.12
2023-10-10T03:09:47.176Z,71.22
2023-10-10T03:10:47.185Z,71.22
2023-10-10T03:11:47.171Z,71.22
2023-10-10T03:12:47.171Z,70.92
2023-10-10T03:13:47.186Z,71.22
2023-10-10T03:14:47.188Z,71.41
2023-10-10T03:15:47.181Z,71.31
2023-10-10T03:16:47.254Z,71.41
2023-10-10T03:17:47.249Z,71.22
2023-10-10T03:18:47.160Z,71.41
2023-10-10T03:19:47.194Z,71.22
2023-10-10T03:20:47.157Z,71.31
2023-10-10T03:21:47.154Z,71.31
2023-10-10T03:22:47.175Z,71.31
2023-10-10T03:23:47.171Z,71.41
2023-10-10T03:24:47.149Z,71.31
2023-10-10T03:25:47.155Z,71.12
2023-10-10T03:26:47.169Z,71.41
2023-10-10T03:27:47.157Z,71.41
2023-10-10T03:28:47.148Z,71.50
2023-10-10T03:29:47.147Z,71.31
2023-10-10T03:30:47.144Z,71.50
2023-10-10T03:31:47.196Z,71.50
2023-10-10T03:32:47.246Z,71.50
2023-10-10T03:33:47.149Z,71.50
2023-10-10T03:34:47.138Z,71.41
2023-10-10T03:35:47.137Z,71.50
2023-10-10T03:36:47.138Z,71.50
2023-10-10T03:37:47.140Z,71.50
2023-10-10T03:38:47.158Z,71.31
2023-10-10T03:39:47.136Z,71.50
2023-10-10T03:40:47.142Z,71.22
2023-10-10T03:41:47.141Z,71.22
2023-10-10T03:42:47.142Z,71.31
2023-10-10T03:43:47.125Z,71.31
2023-10-10T03:44:47.126Z,71.22
2023-10-10T03:45:47.129Z,71.31
2023-10-10T03:46:47.130Z,71.31
2023-10-10T03:47:47.188Z,71.31
2023-10-10T03:48:47.118Z,71.31
2023-10-10T03:49:47.123Z,71.22
2023-10-10T03:50:47.141Z,71.02
2023-10-10T03:51:47.122Z,71.31
2023-10-10T03:52:47.113Z,71.60
2023-10-10T03:53:47.128Z,71.22
2023-10-10T03:54:47.130Z,71.31
2023-10-10T03:55:47.117Z,71.31
2023-10-10T03:56:47.126Z,71.31
2023-10-10T03:57:47.109Z,71.02
2023-10-10T03:58:47.110Z,71.41
2023-10-10T03:59:47.228Z,71.70
2023-10-10T04:00:47.135Z,71.70
2023-10-10T04:01:47.132Z,71.22
2023-10-10T04:02:47.140Z,71.50
2023-10-10T04:03:47.187Z,71.02
2023-10-10T04:04:47.114Z,71.31
2023-10-10T04:05:47.115Z,71.60
2023-10-10T04:06:47.092Z,71.02
2023-10-10T04:07:47.093Z,71.31
2023-10-10T04:08:47.086Z,71.31
2023-10-10T04:09:47.095Z,71.31
2023-10-10T04:10:47.112Z,71.41
2023-10-10T04:11:47.100Z,71.60
2023-10-10T04:12:47.088Z,71.41
2023-10-10T04:13:47.089Z,71.60
2023-10-10T04:14:47.124Z,71.70
2023-10-10T04:15:47.847Z,71.70
2023-10-10T04:16:47.098Z,71.31
2023-10-10T04:17:47.145Z,71.70
2023-10-10T04:18:47.081Z,71.70
2023-10-10T04:19:47.092Z,71.89
2023-10-10T04:20:47.077Z,71.70
2023-10-10T04:21:47.076Z,71.70
2023-10-10T04:22:47.073Z,71.79
2023-10-10T04:23:47.082Z,71.70
2023-10-10T04:24:47.072Z,71.79
2023-10-10T04:25:47.078Z,71.79
2023-10-10T04:26:47.116Z,71.89
2023-10-10T04:27:47.073Z,71.79
2023-10-10T04:28:47.069Z,71.89
2023-10-10T04:29:47.070Z,71.79
2023-10-10T04:30:47.066Z,71.89
2023-10-10T04:31:47.111Z,71.89
2023-10-10T04:32:47.148Z,71.89
2023-10-10T04:33:47.071Z,71.89
2023-10-10T04:34:47.059Z,71.79
2023-10-10T04:35:47.095Z,71.79
2023-10-10T04:36:47.081Z,71.79
2023-10-10T04:37:47.072Z,71.89
2023-10-10T04:38:47.052Z,71.60
2023-10-10T04:39:47.060Z,71.89
2023-10-10T04:40:47.052Z,71.89
2023-10-10T04:41:47.056Z,71.89
2023-10-10T04:42:47.075Z,71.89
2023-10-10T04:43:47.043Z,71.79
2023-10-10T04:44:47.105Z,71.89
2023-10-10T04:45:47.170Z,72.08
2023-10-10T04:46:47.042Z,71.89
2023-10-10T04:47:47.124Z,71.60
2023-10-10T04:48:47.033Z,71.60
2023-10-10T04:49:47.045Z,71.89
2023-10-10T04:50:47.074Z,71.60
2023-10-10T04:51:47.031Z,71.79
2023-10-10T04:52:47.034Z,71.70
2023-10-10T04:53:47.039Z,71.70
2023-10-10T04:54:47.028Z,71.98
2023-10-10T04:55:47.038Z,71.70
2023-10-10T04:56:47.031Z,71.70
2023-10-10T04:57:47.024Z,71.70
2023-10-10T04:58:47.048Z,71.50
2023-10-10T04:59:47.019Z,71.70
2023-10-10T05:00:47.029Z,71.70
2023-10-10T05:01:47.077Z,71.70
2023-10-10T05:02:47.172Z,71.50
2023-10-10T05:03:47.050Z,71.70
2023-10-10T05:04:47.023Z,71.70
2023-10-10T05:05:47.029Z,71.79
2023-10-10T05:06:47.013Z,71.50
2023-10-10T05:07:47.033Z,71.79
2023-10-10T05:08:47.032Z,71.79
2023-10-10T05:09:47.012Z,71.89
2023-10-10T05:10:47.014Z,71.50
2023-10-10T05:11:47.067Z,71.79
2023-10-10T05:12:47.008Z,71.70
2023-10-10T05:13:46.999Z,71.60
2023-10-10T05:14:47.081Z,71.50
2023-10-10T05:15:47.037Z,71.70
2023-10-10T05:16:47.003Z,71.70
2023-10-10T05:17:47.063Z,71.70
2023-10-10T05:18:49.308Z,71.70
2023-10-10T05:19:46.989Z,71.70
2023-10-10T05:20:46.998Z,71.60
2023-10-10T05:21:47.003Z,71.60
2023-10-10T05:22:46.989Z,71.79
2023-10-10T05:23:47.009Z,71.70
2023-10-10T05:24:46.989Z,71.50
2023-10-10T05:25:46.989Z,71.70
2023-10-10T05:26:46.984Z,71.70
2023-10-10T05:27:46.980Z,71.89
2023-10-10T05:28:46.983Z,71.60
2023-10-10T05:29:46.981Z,71.79
2023-10-10T05:30:47.106Z,71.89
2023-10-10T05:31:47.041Z,71.79
2023-10-10T05:32:47.063Z,71.89
2023-10-10T05:33:46.981Z,71.79
2023-10-10T05:34:46.977Z,71.70
2023-10-10T05:35:47.000Z,71.79
2023-10-10T05:36:46.966Z,71.70
2023-10-10T05:37:46.974Z,71.70
2023-10-10T05:38:47.004Z,71.70
2023-10-10T05:39:46.972Z,71.70
2023-10-10T05:40:46.980Z,71.70
2023-10-10T05:41:46.963Z,71.41
2023-10-10T05:42:46.964Z,71.31
2023-10-10T05:43:46.963Z,71.31
2023-10-10T05:44:46.983Z,71.79
2023-10-10T05:45:47.032Z,71.79
2023-10-10T05:46:46.986Z,71.89
2023-10-10T05:47:47.018Z,71.89
2023-10-10T05:48:46.970Z,71.89
2023-10-10T05:49:46.971Z,71.60
2023-10-10T05:50:46.953Z,71.98
2023-10-10T05:51:46.972Z,71.70
2023-10-10T05:52:46.955Z,71.79
2023-10-10T05:53:47.001Z,71.79
2023-10-10T05:54:46.950Z,71.79
2023-10-10T05:55:46.968Z,71.70
2023-10-10T05:56:47.006Z,71.70
2023-10-10T05:57:46.979Z,71.60
2023-10-10T05:58:46.941Z,71.70
2023-10-10T05:59:46.946Z,71.60
2023-10-10T06:00:46.997Z,71.70
2023-10-10T06:01:46.951Z,71.50
2023-10-10T06:02:47.092Z,71.50
2023-10-10T06:03:47.240Z,71.70
2023-10-10T06:04:46.941Z,71.50
2023-10-10T06:05:47.009Z,71.70
2023-10-10T06:06:46.934Z,71.60
2023-10-10T06:07:46.939Z,71.70
2023-10-10T06:08:46.978Z,71.70
2023-10-10T06:09:46.956Z,71.70
2023-10-10T06:10:46.938Z,71.70
2023-10-10T06:11:46.969Z,71.60
2023-10-10T06:12:46.916Z,71.70
2023-10-10T06:13:46.924Z,71.70
2023-10-10T06:14:47.010Z,71.50
2023-10-10T06:15:46.962Z,71.70
2023-10-10T06:16:47.012Z,71.41
2023-10-10T06:17:47.073Z,71.41
2023-10-10T06:18:47.001Z,71.89
2023-10-10T06:19:46.957Z,71.89
2023-10-10T06:21:06.535Z,71.41
2023-10-10T06:21:46.916Z,71.60
2023-10-10T06:22:46.937Z,71.70
2023-10-10T06:23:47.082Z,72.08
2023-10-10T06:24:46.909Z,71.70
2023-10-10T06:25:46.937Z,71.98
2023-10-10T06:26:46.972Z,71.70
2023-10-10T06:27:46.924Z,71.79
2023-10-10T06:28:47.056Z,72.08
2023-10-10T06:29:46.901Z,71.70
2023-10-10T06:30:46.902Z,71.50
2023-10-10T06:31:46.933Z,71.50
2023-10-10T06:32:47.079Z,71.41
2023-10-10T06:33:47.048Z,72.08
2023-10-10T06:34:48.259Z,71.41
2023-10-10T06:35:46.941Z,71.41
2023-10-10T06:36:46.889Z,71.50
2023-10-10T06:37:46.892Z,71.79
2023-10-10T06:38:46.911Z,71.41
2023-10-10T06:39:46.898Z,71.50
2023-10-10T06:40:46.896Z,71.41
2023-10-10T06:41:46.917Z,71.50
2023-10-10T06:42:46.889Z,71.50
2023-10-10T06:43:46.888Z,71.98
2023-10-10T06:44:46.910Z,71.50
2023-10-10T06:45:46.888Z,71.41
2023-10-10T06:46:46.891Z,71.98
2023-10-10T06:47:46.946Z,71.50
2023-10-10T06:48:46.884Z,71.79
2023-10-10T06:49:46.878Z,71.50
2023-10-10T06:50:46.945Z,71.79
2023-10-10T06:51:46.877Z,71.98
2023-10-10T06:52:46.879Z,71.98
2023-10-10T06:53:46.885Z,72.08
2023-10-10T06:54:46.880Z,71.50
2023-10-10T06:55:46.866Z,71.79
2023-10-10T06:56:47.000Z,71.79
2023-10-10T06:57:46.867Z,71.98
2023-10-10T06:58:46.912Z,71.79
2023-10-10T06:59:46.890Z,71.98
2023-10-10T07:00:46.925Z,71.89
2023-10-10T07:01:46.859Z,71.98
2023-10-10T07:02:46.952Z,71.79
2023-10-10T07:03:46.946Z,71.79
2023-10-10T07:04:46.870Z,71.98
2023-10-10T07:05:46.949Z,71.98
2023-10-10T07:06:46.883Z,71.79
2023-10-10T07:07:46.860Z,71.79
2023-10-10T07:08:46.932Z,71.98
2023-10-10T07:09:46.854Z,71.79
2023-10-10T07:10:46.880Z,71.70
2023-10-10T07:11:46.885Z,71.70
2023-10-10T07:12:46.857Z,71.89
2023-10-10T07:13:46.859Z,71.79
2023-10-10T07:14:46.922Z,71.79
2023-10-10T07:15:46.878Z,71.98
2023-10-10T07:16:46.864Z,71.70
2023-10-10T07:17:46.907Z,72.08
2023-10-10T07:18:46.843Z,71.79
2023-10-10T07:19:46.848Z,72.08
2023-10-10T07:20:46.874Z,71.70
2023-10-10T07:21:46.837Z,71.79
2023-10-10T07:22:46.866Z,71.79
2023-10-10T07:23:46.875Z,71.79
2023-10-10T07:24:46.836Z,71.79
2023-10-10T07:25:46.837Z,71.79
2023-10-10T07:26:46.854Z,71.79
2023-10-10T07:27:46.830Z,71.79
2023-10-10T07:28:46.835Z,71.70
2023-10-10T07:29:46.828Z,71.98
2023-10-10T07:30:46.835Z,71.89
2023-10-10T07:31:46.847Z,71.79
2023-10-10T07:32:46.890Z,71.98
2023-10-10T07:33:46.824Z,71.79
2023-10-10T07:34:46.837Z,71.70
2023-10-10T07:35:46.849Z,71.98
2023-10-10T07:36:46.825Z,71.98
2023-10-10T07:37:46.826Z,71.79
2023-10-10T07:38:46.883Z,71.98
2023-10-10T07:39:46.819Z,71.98
2023-10-10T07:40:46.817Z,71.89
2023-10-10T07:41:47.013Z,71.79
2023-10-10T07:42:46.823Z,71.79
2023-10-10T07:43:46.814Z,71.70
2023-10-10T07:44:46.830Z,71.70
2023-10-10T07:45:46.804Z,71.79
2023-10-10T07:46:46.842Z,71.89
2023-10-10T07:47:46.947Z,71.79
2023-10-10T07:48:46.825Z,71.89
2023-10-10T07:49:46.800Z,71.79
2023-10-10T07:50:46.826Z,71.70
2023-10-10T07:51:46.799Z,71.70
2023-10-10T07:52:46.800Z,71.79
2023-10-10T07:53:46.832Z,71.98
2023-10-10T07:54:46.861Z,71.79
2023-10-10T07:55:46.812Z,71.79
2023-10-10T07:56:47.096Z,71.70
2023-10-10T07:57:46.793Z,71.98
2023-10-10T07:58:53.384Z,71.70
2023-10-10T07:59:46.828Z,71.89
2023-10-10T08:00:46.804Z,71.89
2023-10-10T08:01:46.798Z,71.79
2023-10-10T08:02:46.857Z,71.70
2023-10-10T08:03:46.873Z,71.70
2023-10-10T08:04:46.782Z,71.70
2023-10-10T08:05:46.817Z,71.70
2023-10-10T08:06:47.037Z,71.70
2023-10-10T08:07:46.787Z,71.70
2023-10-10T08:08:46.803Z,71.79
2023-10-10T08:09:46.771Z,71.79
2023-10-10T08:10:46.800Z,71.70
2023-10-10T08:11:46.813Z,71.89
2023-10-10T08:12:46.774Z,71.98
2023-10-10T08:13:46.773Z,71.98
2023-10-10T08:14:46.819Z,71.89
2023-10-10T08:15:46.775Z,71.98
2023-10-10T08:16:46.822Z,71.98
2023-10-10T08:17:46.888Z,71.70
2023-10-10T08:18:46.761Z,71.70
2023-10-10T08:19:46.765Z,71.70
2023-10-10T08:20:46.804Z,71.98
2023-10-10T08:21:46.762Z,71.79
2023-10-10T08:22:46.767Z,71.60
2023-10-10T08:23:46.784Z,71.79
2023-10-10T08:24:46.784Z,71.89
2023-10-10T08:25:46.751Z,71.70
2023-10-10T08:26:46.835Z,71.79
2023-10-10T08:27:47.044Z,71.79
2023-10-10T08:28:46.765Z,71.79
2023-10-10T08:29:46.811Z,71.98
2023-10-10T08:30:46.791Z,71.98
2023-10-10T08:31:46.754Z,71.98
2023-10-10T08:32:46.789Z,71.79
2023-10-10T08:33:46.757Z,71.79
2023-10-10T08:34:46.747Z,71.79
2023-10-10T08:35:50.206Z,71.89
2023-10-10T08:36:46.744Z,71.79
2023-10-10T08:37:46.740Z,71.89
2023-10-10T08:38:46.771Z,71.89
2023-10-10T08:39:46.756Z,72.08
2023-10-10T08:40:46.743Z,71.79
2023-10-10T08:41:46.819Z,71.98
2023-10-10T08:42:46.755Z,71.89
2023-10-10T08:43:46.733Z,71.98
2023-10-10T08:44:46.746Z,71.41
2023-10-10T08:45:46.738Z,71.50
2023-10-10T08:46:46.748Z,71.79
2023-10-10T08:47:46.776Z,71.50
2023-10-10T08:48:46.737Z,71.50
2023-10-10T08:49:46.747Z,71.50
2023-10-10T08:50:46.800Z,71.50
2023-10-10T08:51:46.783Z,71.50
2023-10-10T08:52:46.725Z,71.98
2023-10-10T08:53:46.784Z,71.50
2023-10-10T08:54:46.739Z,71.50
2023-10-10T08:55:46.731Z,71.50
2023-10-10T08:56:46.774Z,71.41
2023-10-10T08:57:46.732Z,71.79
2023-10-10T08:58:46.763Z,71.50
2023-10-10T08:59:46.777Z,71.98
2023-10-10T09:00:49.862Z,71.41
2023-10-10T09:01:46.729Z,71.98
2023-10-10T09:02:46.814Z,71.98
2023-10-10T09:03:46.946Z,71.50
2023-10-10T09:04:46.782Z,71.41
2023-10-10T09:05:46.734Z,71.50
2023-10-10T09:06:46.708Z,71.50
2023-10-10T09:07:46.708Z,71.41
2023-10-10T09:08:46.724Z,71.41
2023-10-10T09:09:46.699Z,71.41
2023-10-10T09:10:46.706Z,71.79
2023-10-10T09:11:46.748Z,71.41
2023-10-10T09:12:46.701Z,71.41
2023-10-10T09:13:46.700Z,71.41
2023-10-10T09:14:46.745Z,71.98
2023-10-10T09:15:46.699Z,71.50
2023-10-10T09:16:46.736Z,71.50
2023-10-10T09:17:46.930Z,71.50
2023-10-10T09:18:46.689Z,71.41
2023-10-10T09:19:46.690Z,71.79
2023-10-10T09:20:46.770Z,71.79
2023-10-10T09:21:46.700Z,71.79
2023-10-10T09:22:46.708Z,71.41
2023-10-10T09:23:46.702Z,71.50
2023-10-10T09:24:46.698Z,71.41
2023-10-10T09:25:46.682Z,71.98
2023-10-10T09:26:46.746Z,71.50
2023-10-10T09:27:46.680Z,71.70
2023-10-10T09:28:46.704Z,71.41
2023-10-10T09:29:46.768Z,71.41
2023-10-10T09:30:46.825Z,71.70
2023-10-10T09:31:46.671Z,71.41
2023-10-10T09:32:46.729Z,71.89
2023-10-10T09:33:46.675Z,71.70
2023-10-10T09:34:46.687Z,71.50
2023-10-10T09:35:46.715Z,71.60
2023-10-10T09:36:46.692Z,71.60
2023-10-10T09:37:46.683Z,71.79
2023-10-10T09:38:47.072Z,72.08
2023-10-10T09:39:46.667Z,71.60
2023-10-10T09:40:46.682Z,71.60
2023-10-10T09:41:46.687Z,71.79
2023-10-10T09:42:46.674Z,71.70
2023-10-10T09:43:46.665Z,71.98
2023-10-10T09:44:46.689Z,71.70
2023-10-10T09:45:46.674Z,72.08
2023-10-10T09:46:46.729Z,71.70
2023-10-10T09:47:46.723Z,71.70
2023-10-10T09:48:46.663Z,71.60
2023-10-10T09:49:46.651Z,71.41
2023-10-10T09:50:46.919Z,71.50
2023-10-10T09:51:46.650Z,71.70
2023-10-10T09:52:46.736Z,71.41
2023-10-10T09:53:46.697Z,71.70
2023-10-10T09:54:46.677Z,71.70
2023-10-10T09:55:46.656Z,71.41
2023-10-10T09:56:46.691Z,71.60
2023-10-10T09:57:46.643Z,71.70
2023-10-10T09:58:46.645Z,71.12
2023-10-10T09:59:46.699Z,71.41
2023-10-10T10:00:46.651Z,71.50
2023-10-10T10:01:46.683Z,71.31
2023-10-10T10:02:46.741Z,71.70
2023-10-10T10:03:46.632Z,71.79
2023-10-10T10:04:46.663Z,71.70
2023-10-10T10:05:46.661Z,71.98
2023-10-10T10:07:03.758Z,71.60
2023-10-10T10:07:46.631Z,72.08
2023-10-10T10:08:46.695Z,72.43
2023-10-10T10:09:46.709Z,72.33
2023-10-10T10:10:46.817Z,72.24
2023-10-10T10:11:46.675Z,72.63
2023-10-10T10:12:46.639Z,72.43
2023-10-10T10:13:47.969Z,72.72
2023-10-10T10:14:46.630Z,72.81
2023-10-10T10:15:46.799Z,72.59
2023-10-10T10:16:46.908Z,72.97
2023-10-10T10:17:46.719Z,73.07
2023-10-10T10:18:46.742Z,72.78
2023-10-10T10:19:49.135Z,73.46
2023-10-10T10:20:46.683Z,73.07
2023-10-10T10:21:46.603Z,73.16
2023-10-10T10:22:46.626Z,73.26
2023-10-10T10:23:46.980Z,73.07
2023-10-10T10:24:46.608Z,73.07
2023-10-10T10:25:46.598Z,73.07
2023-10-10T10:26:46.618Z,73.07
2023-10-10T10:27:46.603Z,73.16
2023-10-10T10:28:46.595Z,73.26
2023-10-10T10:29:46.600Z,73.36
2023-10-10T10:30:46.600Z,73.07
2023-10-10T10:31:46.607Z,73.46
2023-10-10T10:32:46.648Z,72.68
2023-10-10T10:33:46.603Z,72.78
2023-10-10T10:34:46.616Z,72.88
2023-10-10T10:35:46.656Z,72.78
2023-10-10T10:36:46.643Z,72.59
2023-10-10T10:37:46.570Z,72.78
2023-10-10T10:38:46.625Z,72.78
2023-10-10T10:39:46.561Z,72.88
2023-10-10T10:40:46.563Z,72.97
2023-10-10T10:41:46.563Z,72.59
2023-10-10T10:42:46.555Z,72.88
2023-10-10T10:43:46.594Z,72.97
2023-10-10T10:44:46.686Z,72.88
2023-10-10T10:45:46.691Z,72.59
2023-10-10T10:46:46.554Z,72.39
2023-10-10T10:47:46.628Z,72.78
2023-10-10T10:48:46.537Z,72.39
2023-10-10T10:49:46.543Z,72.68
2023-10-10T10:50:46.758Z,72.78
2023-10-10T10:51:46.538Z,72.68
2023-10-10T10:52:46.776Z,72.78
2023-10-10T10:53:46.600Z,72.11
2023-10-10T10:54:46.539Z,72.11
2023-10-10T10:55:46.525Z,72.39
2023-10-10T10:56:51.609Z,72.30
2023-10-10T10:57:50.818Z,72.59
2023-10-10T10:58:46.526Z,72.39
2023-10-10T10:59:46.692Z,72.20
2023-10-10T11:00:46.630Z,71.81
2023-10-10T11:01:46.547Z,72.20
2023-10-10T11:02:46.658Z,72.01
2023-10-10T11:03:46.578Z,72.11
2023-10-10T11:04:46.547Z,72.11
2023-10-10T11:05:46.626Z,72.11
2023-10-10T11:06:46.517Z,72.11
2023-10-10T11:07:46.496Z,72.11
2023-10-10T11:08:56.514Z,71.81
2023-10-10T11:09:46.482Z,72.11
2023-10-10T11:10:46.488Z,72.01
2023-10-10T11:11:46.571Z,71.91
2023-10-10T11:12:46.482Z,72.11
2023-10-10T11:13:46.477Z,72.01
2023-10-10T11:14:46.617Z,71.81
2023-10-10T11:15:46.484Z,71.62
2023-10-10T11:16:46.531Z,71.62
2023-10-10T11:17:46.528Z,71.62
2023-10-10T11:18:46.518Z,71.62
2023-10-10T11:19:46.456Z,71.62
2023-10-10T11:20:46.507Z,71.62
2023-10-10T11:21:46.452Z,71.81
2023-10-10T11:22:46.485Z,71.72
2023-10-10T11:23:46.490Z,71.81
2023-10-10T11:24:46.450Z,71.43
2023-10-10T11:25:46.443Z,71.62
2023-10-10T11:26:46.467Z,71.53
2023-10-10T11:27:46.485Z,71.34
2023-10-10T11:28:46.460Z,71.34
2023-10-10T11:29:46.647Z,71.34
2023-10-10T11:30:46.429Z,71.28
2023-10-10T11:31:46.473Z,71.62
2023-10-10T11:32:46.503Z,71.66
2023-10-10T11:33:46.443Z,71.53
2023-10-10T11:34:46.424Z,71.47
2023-10-10T11:35:46.479Z,71.56
2023-10-10T11:36:46.416Z,71.56
2023-10-10T11:37:46.414Z,71.66
2023-10-10T11:38:46.503Z,71.72
2023-10-10T11:39:46.402Z,71.47
2023-10-10T11:40:46.413Z,71.47
2023-10-10T11:41:46.487Z,71.66
2023-10-10T11:42:46.414Z,71.76
2023-10-10T11:43:46.394Z,71.85
2023-10-10T11:44:46.470Z,71.56
2023-10-10T11:45:46.431Z,71.47
2023-10-10T11:46:46.443Z,71.47
2023-10-10T11:47:46.477Z,71.47
2023-10-10T11:48:46.402Z,71.37
2023-10-10T11:49:46.379Z,71.37
2023-10-10T11:50:46.459Z,70.98
2023-10-10T11:51:46.383Z,71.28
2023-10-10T11:52:46.387Z,71.28
2023-10-10T11:53:46.393Z,71.08
2023-10-10T11:54:46.388Z,70.89
2023-10-10T11:55:46.388Z,71.18
2023-10-10T11:56:46.380Z,70.89
2023-10-10T11:57:46.374Z,70.98
2023-10-10T11:58:46.358Z,70.79
2023-10-10T11:59:46.429Z,70.79
2023-10-10T12:00:46.382Z,71.18
2023-10-10T12:01:46.462Z,70.79
2023-10-10T12:02:46.446Z,70.79
2023-10-10T12:03:46.423Z,70.70
2023-10-10T12:04:46.445Z,70.60
2023-10-10T12:05:46.367Z,70.60
2023-10-10T12:06:46.350Z,70.89
2023-10-10T12:07:46.356Z,70.60
2023-10-10T12:08:46.363Z,70.50
2023-10-10T12:09:46.556Z,70.70
2023-10-10T12:10:46.356Z,70.60
2023-10-10T12:11:46.357Z,70.79
2023-10-10T12:12:46.335Z,70.89
2023-10-10T12:13:46.339Z,70.31
2023-10-10T12:14:46.384Z,70.50
2023-10-10T12:15:46.398Z,70.50
2023-10-10T12:16:46.329Z,70.21
2023-10-10T12:17:46.399Z,70.12
2023-10-10T12:18:46.430Z,70.41
2023-10-10T12:19:46.325Z,70.06
2023-10-10T12:20:46.382Z,69.83
2023-10-10T12:21:46.314Z,70.15
2023-10-10T12:22:46.310Z,70.15
2023-10-10T12:23:46.327Z,69.96
2023-10-10T12:24:46.319Z,69.96
2023-10-10T12:25:46.334Z,70.15
2023-10-10T12:26:46.363Z,70.25
2023-10-10T12:27:46.302Z,70.25
2023-10-10T12:28:46.311Z,70.25
2023-10-10T12:29:46.310Z,70.25
2023-10-10T12:30:46.296Z,70.25
2023-10-10T12:31:46.326Z,70.25
2023-10-10T12:32:46.339Z,70.25
2023-10-10T12:33:46.311Z,70.15
2023-10-10T12:34:46.291Z,69.96
2023-10-10T12:35:46.306Z,70.06
2023-10-10T12:36:46.280Z,70.06
2023-10-10T12:37:46.285Z,70.15
2023-10-10T12:38:46.600Z,69.96
2023-10-10T12:39:46.280Z,69.57
2023-10-10T12:40:46.270Z,69.77
2023-10-10T12:41:46.311Z,69.67
2023-10-10T12:42:46.286Z,69.48
2023-10-10T12:43:46.276Z,69.48
2023-10-10T12:44:46.294Z,69.57
2023-10-10T12:45:46.293Z,69.77
2023-10-10T12:46:46.265Z,69.57
2023-10-10T12:47:46.481Z,69.87
2023-10-10T12:48:46.332Z,69.77
2023-10-10T12:49:46.385Z,69.77
2023-10-10T12:50:46.262Z,69.77
2023-10-10T12:51:46.426Z,69.87
2023-10-10T12:52:46.281Z,69.87